Latest Weather Observations for Dunalley

IDT60801

Issued at 10:31 pm EDT Tuesday 9 February 2016 (issued every 30 minutes, with the page automatically refreshed every 10 minutes)

About weather observations | Map of weather stations | Latest weather observations for TAS | Other Formats
Station Details ID: 094254 Name: DUNALLEY (STROUD POINT) Lat: -42.90 Lon: 147.79 Height: 12.43 m
Data from the previous 72 hours. | See also: Recent months at Dunalley
Date/Time
EDT
Temp
°C
App
Temp
°C
Dew
Point
Rel
Hum
%
Delta-T
°C
Wind Press
QNH
hPa
Press
MSL
hPa
Rain
since 9 am
mm
Dir
 
Spd
km/h
Gust
km/h
Spd
kts
Gust
kts
09/10:30pm 17.4 16.3 14.3 82 1.8 S 13 19 7 10 1015.0 1015.0 0.0
09/10:00pm 17.9 16.2 14.8 82 1.8 S 17 24 9 13 1015.2 1015.2 0.0
09/09:30pm 18.4 14.8 15.3 82 1.8 S 28 33 15 18 1015.3 1015.3 0.0
09/09:00pm 18.3 13.8 15.0 81 1.9 S 32 39 17 21 1015.1 1015.1 0.0
09/08:30pm 19.2 16.1 15.7 80 2.1 SSW 26 30 14 16 1014.8 1014.8 0.0
09/08:00pm 19.7 17.1 15.8 78 2.3 SSW 24 28 13 15 1014.5 1014.5 0.0
09/07:30pm 21.6 22.7 15.7 69 3.5 ENE 4 9 2 5 1014.5 1014.5 0.0
09/07:00pm 21.6 21.2 16.1 71 3.3 ENE 13 17 7 9 1014.4 1014.4 0.0
09/06:30pm 21.9 20.2 16.2 70 3.4 ENE 20 26 11 14 1014.3 1014.3 0.0
09/06:00pm 22.6 20.7 16.6 69 3.7 ENE 22 28 12 15 1014.5 1014.5 0.0
09/05:30pm 22.1 19.4 15.7 67 3.8 ENE 24 30 13 16 1014.9 1014.9 0.0
09/05:00pm 22.3 19.2 15.6 66 4.0 ENE 26 33 14 18 1015.3 1015.3 0.0
09/04:30pm 22.9 19.7 16.2 66 4.1 ENE 28 39 15 21 1015.8 1015.8 0.0
09/04:00pm 22.8 18.2 15.1 62 4.6 NE 33 39 18 21 1016.0 1016.0 0.0
09/03:30pm 22.7 18.2 15.0 61 4.6 ENE 32 41 17 22 1016.4 1016.4 0.0
09/03:00pm 22.4 17.2 14.5 61 4.6 ENE 35 43 19 23 1016.9 1016.9 0.0
09/02:30pm 22.0 16.6 13.9 60 4.7 ENE 35 46 19 25 1017.2 1017.2 0.0
09/02:00pm 22.4 17.3 13.2 56 5.3 ENE 32 39 17 21 1017.6 1017.6 0.0
09/01:30pm 22.3 17.4 12.5 53 5.6 ENE 30 37 16 20 1018.0 1018.0 0.0
09/01:00pm 21.9 18.1 12.5 55 5.3 ENE 24 32 13 17 1018.6 1018.6 0.0
09/12:30pm 22.1 18.4 11.5 51 5.9 NE 22 30 12 16 1019.1 1019.1 0.0
09/12:00pm 21.9 17.5 10.4 48 6.3 NE 24 32 13 17 1019.6 1019.6 0.0
09/11:30am 21.5 18.4 10.3 49 6.1 NE 17 22 9 12 1020.0 1020.0 0.0
09/11:00am 20.1 19.1 10.2 53 5.3 WNW 6 7 3 4 1020.4 1020.4 0.0
09/10:30am 19.3 18.0 9.8 54 5.1 WNW 7 9 4 5 1020.8 1020.8 0.0
09/10:00am 19.4 17.3 9.9 54 5.1 WNW 11 13 6 7 1021.0 1021.0 0.0
09/09:30am 19.6 17.4 9.5 52 5.4 NW 11 17 6 9 1021.2 1021.2 0.0
09/09:00am 19.0 17.5 9.2 53 5.1 NW 7 13 4 7 1021.3 1021.3 0.0
09/08:30am 18.4 16.5 8.9 54 4.9 NW 9 17 5 9 1021.3 1021.3 0.0
09/08:00am 17.6 15.3 9.0 57 4.4 NW 11 17 6 9 1021.1 1021.1 0.0
09/07:30am 16.7 14.0 8.9 60 4.0 NNW 13 19 7 10 1021.2 1021.2 0.0
09/07:00am 15.9 12.8 8.9 63 3.6 NNW 15 17 8 9 1021.1 1021.1 0.0
09/06:30am 15.5 12.4 9.0 65 3.3 NW 15 17 8 9 1020.8 1020.8 0.0
09/06:00am 15.3 12.2 9.0 66 3.2 W 15 17 8 9 1020.6 1020.6 0.0
09/05:30am 15.3 13.4 9.2 67 3.1 W 9 13 5 7 1020.4 1020.4 0.0
09/05:00am 15.4 12.6 8.6 64 3.4 W 13 17 7 9 1020.4 1020.4 0.0
09/04:30am 15.8 13.7 9.7 67 3.2 WSW 11 17 6 9 1020.3 1020.3 0.0
09/04:00am 15.7 13.7 10.0 69 3.0 WSW 11 13 6 7 1020.2 1020.2 0.0
09/03:30am 17.8 14.8 11.8 68 3.3 WSW 19 22 10 12 1020.2 1020.2 0.0
09/03:00am 17.9 14.4 11.0 64 3.7 SW 20 24 11 13 1020.1 1020.1 0.0
09/02:30am 18.2 14.6 12.0 67 3.4 SW 22 28 12 15 1020.2 1020.2 0.0
09/02:00am 18.3 14.8 12.3 68 3.3 SW 22 28 12 15 1020.2 1020.2 0.0
09/01:30am 16.5 14.7 9.4 63 3.7 WSW 9 15 5 8 1020.5 1020.5 0.0
09/01:00am 17.0 15.4 8.9 59 4.2 WSW 7 11 4 6 1020.6 1020.6 0.0
09/12:30am 17.6 15.2 10.0 61 4.0 WNW 13 19 7 10 1020.7 1020.7 0.0
09/12:00am 17.7 14.7 9.1 57 4.5 W 15 26 8 14 1020.6 1020.6 0.0
 
Date/Time
EDT
Temp
°C
App
Temp
°C
Dew
Point
Rel
Hum
%
Delta-T
°C
Wind Press
QNH
hPa
Press
MSL
hPa
Rain
since 9 am
mm
Dir
 
Spd
km/h
Gust
km/h
Spd
kts
Gust
kts
08/11:30pm 19.2 14.1 10.7 58 4.6 WSW 28 33 15 18 1020.5 1020.5 0.0
08/11:00pm 19.4 13.9 10.7 57 4.7 W 30 39 16 21 1020.7 1020.7 0.0
08/10:30pm 19.6 13.3 10.9 57 4.7 WSW 35 39 19 21 1020.6 1020.6 0.0
08/10:00pm 19.6 11.9 10.0 54 5.1 WSW 41 46 22 25 1020.6 1020.6 0.0
08/09:30pm 19.9 12.6 11.7 59 4.5 WSW 41 48 22 26 1020.1 1020.1 0.0
08/09:00pm 20.1 13.1 11.1 56 4.9 SW 39 48 21 26 1019.8 1019.8 0.0
08/08:30pm 20.7 15.7 11.1 54 5.3 SW 28 41 15 22 1019.5 1019.5 0.0
08/08:00pm 21.4 19.8 11.4 53 5.5 SSE 11 30 6 16 1019.0 1019.0 0.0
08/07:30pm 21.1 18.9 13.3 61 4.5 SSE 17 20 9 11 1018.6 1018.6 0.0
08/07:00pm 21.7 19.1 13.1 58 4.9 S 19 22 10 12 1018.2 1018.2 0.0
08/06:30pm 22.4 21.1 12.6 54 5.6 SSE 11 13 6 7 1017.9 1017.9 0.0
08/06:00pm 23.0 21.3 12.6 52 5.9 SSE 13 17 7 9 1017.7 1017.7 0.0
08/05:30pm 23.0 21.3 12.6 52 5.9 S 13 19 7 10 1017.5 1017.5 0.0
08/05:00pm 23.1 20.3 13.3 54 5.7 S 20 24 11 13 1017.4 1017.4 0.0
08/04:30pm 23.5 21.8 13.7 54 5.7 S 15 22 8 12 1017.2 1017.2 0.0
08/04:00pm 23.3 20.6 13.5 54 5.7 S 20 24 11 13 1017.1 1017.1 0.0
08/03:30pm 23.8 21.4 13.9 54 5.8 S 19 24 10 13 1017.0 1017.0 0.0
08/03:00pm 23.7 21.1 13.8 53 5.8 S 20 24 11 13 1017.2 1017.2 0.0
08/02:30pm 23.5 21.6 13.1 52 6.0 SW 15 24 8 13 1017.3 1017.3 0.0
08/02:00pm 24.4 21.1 11.7 45 7.2 SW 20 24 11 13 1017.4 1017.4 0.0
08/01:30pm 23.8 21.5 10.5 43 7.4 WSW 13 17 7 9 1017.6 1017.6 0.0
08/01:00pm 23.4 20.5 13.0 52 6.0 SW 20 24 11 13 1017.6 1017.6 0.0
08/12:30pm 23.1 20.8 13.0 53 5.8 SW 17 20 9 11 1017.7 1017.7 0.0
08/12:00pm 22.7 20.0 12.9 54 5.6 SW 19 26 10 14 1018.0 1018.0 0.0
08/11:30am 22.0 19.2 13.1 57 5.1 SW 20 24 11 13 1017.9 1017.9 0.0
08/11:00am 21.8 19.4 13.9 61 4.6 WSW 19 22 10 12 1018.1 1018.1 0.0
08/10:30am 21.3 19.6 13.7 62 4.4 WSW 15 20 8 11 1018.1 1018.1 0.0
08/10:00am 20.9 20.1 14.1 65 3.9 WSW 11 13 6 7 1018.1 1018.1 0.0
08/09:30am 20.3 17.6 13.5 65 3.9 SW 20 24 11 13 1018.6 1018.6 0.0
08/09:00am 19.7 19.8 15.4 76 2.5 SW 9 13 5 7 1018.3 1018.3 0.0
08/08:30am 19.1 17.1 15.0 77 2.4 SW 19 20 10 11 1018.2 1018.2 0.0
08/08:00am 18.7 18.5 16.7 88 1.2 ESE 13 17 7 9 1017.8 1017.8 0.0
08/07:30am 18.7 19.0 17.0 90 1.0 ESE 11 15 6 8 1017.7 1017.7 0.0
08/07:00am 17.5 18.4 16.0 91 0.9 ESE 6 9 3 5 1017.4 1017.4 0.0
08/06:30am 17.0 18.0 15.3 90 1.0 ESE 4 6 2 3 1017.1 1017.1 0.0
08/06:00am 17.5 18.1 15.7 89 1.1 ESE 7 7 4 4 1017.0 1017.0 0.0
08/05:30am 17.8 18.7 16.0 89 1.1 ESE 6 7 3 4 1016.8 1016.8 0.0
08/05:00am 17.5 18.1 15.7 89 1.1 ESE 7 9 4 5 1016.7 1016.7 0.0
08/04:30am 17.9 19.1 15.9 88 1.2 ESE 4 4 2 2 1016.6 1016.6 0.0
08/04:00am 18.1 20.1 15.9 87 1.3 CALM 0 0 0 0 1016.7 1016.7 0.0
08/03:30am 18.3 20.2 15.7 85 1.5 CALM 0 0 0 0 1016.8 1016.8 0.0
08/03:00am 18.5 20.0 15.6 83 1.7 ESE 2 4 1 2 1017.1 1017.1 0.0
08/02:30am 18.8 19.6 15.9 83 1.7 ESE 6 7 3 4 1017.2 1017.2 0.0
08/02:00am 19.0 19.7 16.2 84 1.7 ESE 7 9 4 5 1017.3 1017.3 0.0
08/01:30am 19.1 21.2 16.3 84 1.7 CALM 0 7 0 4 1017.6 1017.6 0.0
08/01:00am 19.1 21.1 16.1 83 1.8 CALM 0 0 0 0 1017.8 1017.8 0.0
08/12:30am 19.1 21.1 16.1 83 1.8 CALM 0 4 0 2 1017.8 1017.8 0.0
08/12:00am 19.1 20.3 16.0 82 1.8 ESE 4 6 2 3 1017.8 1017.8 0.0
 
Date/Time
EDT
Temp
°C
App
Temp
°C
Dew
Point
Rel
Hum
%
Delta-T
°C
Wind Press
QNH
hPa
Press
MSL
hPa
Rain
since 9 am
mm
Dir
 
Spd
km/h
Gust
km/h
Spd
kts
Gust
kts
07/11:30pm 19.1 19.8 16.0 82 1.8 ESE 7 9 4 5 1017.9 1017.9 0.0
07/11:00pm 19.1 19.8 16.0 82 1.8 ESE 7 11 4 6 1018.1 1018.1 0.0
07/10:30pm 19.3 20.2 16.0 81 2.0 ESE 6 7 3 4 1018.3 1018.3 0.0
07/10:00pm 19.3 20.0 15.6 79 2.2 ESE 6 7 3 4 1018.3 1018.3 0.0
07/09:30pm 19.5 20.1 15.8 79 2.2 ESE 7 9 4 5 1018.0 1018.0 0.0
07/09:00pm 19.5 19.6 15.6 78 2.3 ESE 9 11 5 6 1017.7 1017.7 0.0
07/08:30pm 19.5 19.2 15.4 77 2.4 ESE 11 15 6 8 1017.5 1017.5 0.0
07/08:00pm 19.7 18.0 15.8 78 2.3 ESE 19 24 10 13 1017.3 1017.3 0.0
07/07:30pm 19.9 18.2 16.2 79 2.2 ESE 20 24 11 13 1017.2 1017.2 0.0
07/07:00pm 20.1 18.0 16.1 78 2.4 E 22 28 12 15 1016.8 1016.8 0.0
07/06:30pm 20.4 17.9 16.2 77 2.5 ENE 24 32 13 17 1016.5 1016.5 0.0
07/06:00pm 21.1 18.2 16.1 73 3.0 NE 26 35 14 19 1016.2 1016.2 0.0
07/05:30pm 21.7 17.8 15.5 68 3.7 NE 30 37 16 20 1016.2 1016.2 0.0
07/05:00pm 22.0 17.8 15.8 68 3.7 NE 32 39 17 21 1016.2 1016.2 0.0
07/04:30pm 22.6 19.1 16.6 69 3.7 NE 30 39 16 21 1016.3 1016.3 0.0
07/04:00pm 23.4 20.4 16.9 67 4.0 NE 28 33 15 18 1016.1 1016.1 0.0
07/03:30pm 24.0 22.6 16.5 63 4.6 E 19 24 10 13 1016.4 1016.4 0.0
07/03:00pm 23.1 22.9 16.6 67 4.0 S 13 19 7 10 1016.7 1016.7 0.0
07/02:30pm 22.5 23.1 16.8 70 3.5 S 9 13 5 7 1017.0 1017.0 0.0
07/02:00pm 21.9 22.5 15.3 66 3.9 S 6 7 3 4 1017.2 1017.2 0.0
07/01:30pm 22.2 23.2 16.9 72 3.2 SSW 7 9 4 5 1017.5 1017.5 0.0
07/01:00pm 21.2 22.1 16.0 72 3.1 SSW 6 7 3 4 1017.6 1017.6 0.0
07/12:30pm 21.3 22.1 15.8 71 3.3 SSW 6 7 3 4 1017.9 1017.9 0.0
07/12:00pm 20.6 21.3 15.6 73 3.0 SSW 6 7 3 4 1018.1 1018.1 0.0
07/11:30am 20.7 21.3 15.7 73 3.0 S 7 11 4 6 1018.2 1018.2 0.0
07/11:00am 19.8 20.1 15.9 78 2.3 SSW 9 13 5 7 1018.4 1018.4 0.0
07/10:30am 19.8 19.4 16.3 80 2.1 SSW 13 19 7 10 1018.5 1018.5 0.0
07/10:00am 18.8 17.0 15.9 83 1.7 SSW 20 24 11 13 1018.5 1018.5 0.0
07/09:30am 18.3 16.0 15.7 85 1.5 SSW 22 28 12 15 1018.4 1018.4 0.0
07/09:00am 18.9 17.1 16.1 84 1.7 SW 20 22 11 12 1018.3 1018.3 0.0
07/08:30am 18.7 17.5 16.1 85 1.5 ESE 17 20 9 11 1018.1 1018.1 0.0
07/08:00am 18.6 18.5 16.9 90 1.0 NE 13 17 7 9 1018.0 1018.0 0.0
07/07:30am 18.1 18.1 16.3 89 1.1 NE 11 15 6 8 1017.7 1017.7 0.0
07/07:00am 17.5 18.4 16.0 91 0.9 NE 6 7 3 4 1017.5 1017.5 0.0
07/06:30am 16.6 16.9 15.0 90 0.9 NE 7 9 4 5 1017.3 1017.3 0.0
07/06:00am 16.9 17.4 15.1 89 1.0 NE 6 7 3 4 1017.1 1017.1 0.0
07/05:30am 17.0 17.3 14.6 86 1.4 NE 6 9 3 5 1016.7 1016.7 0.0
07/05:00am 16.7 16.7 13.6 82 1.7 NE 6 7 3 4 1016.3 1016.3 0.0
07/04:30am 16.3 16.2 13.4 83 1.6 NE 6 9 3 5 1016.2 1016.2 0.0
07/04:00am 16.8 17.3 13.9 83 1.6 NE 4 6 2 3 1016.2 1016.2 0.0
07/03:30am 18.1 17.1 15.7 86 1.4 NE 15 20 8 11 1016.3 1016.3 0.0
07/03:00am 18.0 16.7 15.8 87 1.3 NNE 17 20 9 11 1016.4 1016.4 0.0
07/02:30am 16.8 16.8 14.3 85 1.4 NNE 7 9 4 5 1016.7 1016.7 0.0
07/02:00am 17.3 17.4 14.4 83 1.7 NNE 7 9 4 5 1016.8 1016.8 0.0
07/01:30am 17.7 18.4 14.4 81 1.9 NNE 4 9 2 5 1017.0 1017.0 0.0
07/01:00am 18.5 17.4 15.2 81 1.9 NNE 15 19 8 10 1017.1 1017.1 0.0
07/12:30am 18.7 17.2 15.2 80 2.1 NE 17 20 9 11 1017.1 1017.1 0.0
07/12:00am 18.9 17.0 15.2 79 2.2 NNE 19 24 10 13 1017.2 1017.2 0.0
 
Date/Time
EDT
Temp
°C
App
Temp
°C
Dew
Point
Rel
Hum
%
Delta-T
°C
Wind Press
QNH
hPa
Press
MSL
hPa
Rain
since 9 am
mm
Dir
 
Spd
km/h
Gust
km/h
Spd
kts
Gust
kts
06/11:30pm 18.4 19.2 14.9 80 2.0 NNE 4 7 2 4 1017.4 1017.4 0.0
06/11:00pm 18.9 19.0 15.4 80 2.1 NNE 9 15 5 8 1017.5 1017.5 0.0

Other Formats:

Comma delimited format used in spreadsheet applications
http://www.bom.gov.au/fwo/IDT60801/IDT60801.94951.axf

JavaScript Object Notation format (JSON) in row-major order
http://www.bom.gov.au/fwo/IDT60801/IDT60801.94951.json